Mutiny — WCY3039 — position and weather

sailwx.info

Track history (hours):
 
Tides and Currents Weather Stations Pressure Air Temp Water Temp Dewpoint Dewpoint Depression Visibility Wind Speed Wind Dir Waves Ship Positions

Mutiny

Owner: Kane Jr, Theodore G, RYE, NY. More information available from US FCC via Universal Licensing System and Coast Guard Vessel Documentation Center.

Last reported at 2017-Sep-18 23:24 UTC. Time now 2017-Nov-22 07:34 UTC.
Position N 41°16' W 072°29'.
Warning: this ship's position is months out of date.

Length 13 m.

Type: Sailing vessel. MMSI: 366747620.

Date/timePositionNaut miles runAvg speedWind from/ knotsBaromVisibWave heightAir tempDewpointWater temp
2017-Sep-18 23:24N 41°16' W 072°29'2 5.4
2017-Sep-18 23:00N 41°15' W 072°26'510.2
2017-Sep-18 22:30N 41°15' W 072°20'48 0.9
2017-Sep-16 19:26N 41°34' W 071°21'1 1.6
2017-Sep-16 19:00N 41°33' W 071°21'1 0.7
2017-Sep-16 17:35N 41°34' W 071°20'0 0.2
2017-Sep-16 17:14N 41°34' W 071°20'0 0.6
2017-Sep-16 17:00N 41°34' W 071°20'0 0.9
2017-Sep-16 16:30N 41°33' W 071°20'3 6.6
2017-Sep-16 15:59N 41°30' W 071°21'1 1.6
2017-Sep-16 15:17N 41°29' W 071°20'  
Track history (hours):
 
Tides and Currents Weather Stations Pressure Air Temp Water Temp Dewpoint Dewpoint Depression Visibility Wind Speed Wind Dir Waves Ship Positions

Mutiny

Owner: Kane Jr, Theodore G, RYE, NY. More information available from US FCC via Universal Licensing System and Coast Guard Vessel Documentation Center.

Last reported at 2017-Sep-18 23:24 UTC. Time now 2017-Nov-22 07:34 UTC.
Position N 41°16' W 072°29'.
Warning: this ship's position is months out of date.

Length 13 m.

Type: Sailing vessel. MMSI: 366747620.

Date/timePositionNaut miles runAvg speedWind from/ knotsBaromVisibWave heightAir tempDewpointWater temp
2017-Sep-18 23:24N 41°16' W 072°29'2 5.4
2017-Sep-18 23:00N 41°15' W 072°26'510.2
2017-Sep-18 22:30N 41°15' W 072°20'48 0.9
2017-Sep-16 19:26N 41°34' W 071°21'1 1.6
2017-Sep-16 19:00N 41°33' W 071°21'1 0.7
2017-Sep-16 17:35N 41°34' W 071°20'0 0.2
2017-Sep-16 17:14N 41°34' W 071°20'0 0.6
2017-Sep-16 17:00N 41°34' W 071°20'0 0.9
2017-Sep-16 16:30N 41°33' W 071°20'3 6.6
2017-Sep-16 15:59N 41°30' W 071°21'1 1.6
2017-Sep-16 15:17N 41°29' W 071°20'  

Dump ship's entire track history